sensor_id;sensor_type;location;lat;lon;timestamp;P1;durP1;ratioP1;P2;durP2;ratioP2
37507;SDS011;23360;46.936;15.514;2022-08-19T00:01:57;1475.65;;;999.90;;
37507;SDS011;23360;46.936;15.514;2022-08-19T00:04:30;1307.10;;;937.38;;
37507;SDS011;23360;46.936;15.514;2022-08-19T00:06:58;1497.55;;;999.90;;
37507;SDS011;23360;46.936;15.514;2022-08-19T00:09:26;1320.70;;;944.17;;
37507;SDS011;23360;46.936;15.514;2022-08-19T00:11:53;1471.90;;;999.90;;
37507;SDS011;23360;46.936;15.514;2022-08-19T00:14:24;1398.05;;;987.63;;
37507;SDS011;23360;46.936;15.514;2022-08-19T00:16:53;1357.53;;;934.97;;
37507;SDS011;23360;46.936;15.514;2022-08-19T00:19:21;1370.53;;;955.97;;
37507;SDS011;23360;46.936;15.514;2022-08-19T00:21:47;1344.22;;;965.85;;
37507;SDS011;23360;46.936;15.514;2022-08-19T00:24:15;1331.15;;;921.33;;
37507;SDS011;23360;46.936;15.514;2022-08-19T00:26:44;1481.72;;;996.45;;
37507;SDS011;23360;46.936;15.514;2022-08-19T00:29:12;1415.57;;;984.28;;
37507;SDS011;23360;46.936;15.514;2022-08-19T00:31:40;1237.20;;;882.22;;
37507;SDS011;23360;46.936;15.514;2022-08-19T00:34:08;1430.03;;;999.90;;
37507;SDS011;23360;46.936;15.514;2022-08-19T00:36:34;1393.57;;;997.17;;
37507;SDS011;23360;46.936;15.514;2022-08-19T00:39:01;1421.72;;;966.17;;
37507;SDS011;23360;46.936;15.514;2022-08-19T00:41:29;1301.63;;;915.08;;
37507;SDS011;23360;46.936;15.514;2022-08-19T00:46:32;1394.28;;;999.90;;
37507;SDS011;23360;46.936;15.514;2022-08-19T00:49:00;1382.07;;;975.15;;
37507;SDS011;23360;46.936;15.514;2022-08-19T00:51:27;1333.50;;;927.42;;
37507;SDS011;23360;46.936;15.514;2022-08-19T00:53:55;1456.22;;;999.90;;
37507;SDS011;23360;46.936;15.514;2022-08-19T00:56:23;1338.93;;;945.92;;
37507;SDS011;23360;46.936;15.514;2022-08-19T00:58:49;1362.15;;;939.17;;
37507;SDS011;23360;46.936;15.514;2022-08-19T01:01:16;1326.78;;;950.35;;
37507;SDS011;23360;46.936;15.514;2022-08-19T01:03:42;1459.63;;;998.95;;
37507;SDS011;23360;46.936;15.514;2022-08-19T01:06:24;1406.25;;;994.80;;
37507;SDS011;23360;46.936;15.514;2022-08-19T01:08:50;1307.65;;;937.90;;
37507;SDS011;23360;46.936;15.514;2022-08-19T01:11:17;1361.60;;;968.08;;
37507;SDS011;23360;46.936;15.514;2022-08-19T01:13:43;1310.03;;;943.28;;
37507;SDS011;23360;46.936;15.514;2022-08-19T01:16:15;1313.10;;;958.20;;
37507;SDS011;23360;46.936;15.514;2022-08-19T01:18:44;1419.85;;;999.90;;
37507;SDS011;23360;46.936;15.514;2022-08-19T01:21:12;1347.13;;;947.15;;
37507;SDS011;23360;46.936;15.514;2022-08-19T01:23:42;1380.05;;;955.35;;
37507;SDS011;23360;46.936;15.514;2022-08-19T01:26:11;1318.28;;;945.65;;
37507;SDS011;23360;46.936;15.514;2022-08-19T01:28:40;1304.50;;;901.88;;
37507;SDS011;23360;46.936;15.514;2022-08-19T01:31:08;1370.25;;;974.10;;
37507;SDS011;23360;46.936;15.514;2022-08-19T01:33:53;1307.50;;;946.50;;
37507;SDS011;23360;46.936;15.514;2022-08-19T01:36:24;1276.13;;;940.22;;
37507;SDS011;23360;46.936;15.514;2022-08-19T01:38:53;1403.68;;;955.95;;
37507;SDS011;23360;46.936;15.514;2022-08-19T01:41:20;1277.82;;;930.67;;
37507;SDS011;23360;46.936;15.514;2022-08-19T01:43:49;1281.82;;;914.90;;
37507;SDS011;23360;46.936;15.514;2022-08-19T01:46:36;1442.85;;;984.75;;
37507;SDS011;23360;46.936;15.514;2022-08-19T01:49:03;1217.35;;;897.08;;
37507;SDS011;23360;46.936;15.514;2022-08-19T01:51:38;1348.90;;;915.65;;
37507;SDS011;23360;46.936;15.514;2022-08-19T01:54:09;1228.03;;;909.55;;
37507;SDS011;23360;46.936;15.514;2022-08-19T01:56:36;1231.97;;;935.28;;
37507;SDS011;23360;46.936;15.514;2022-08-19T01:59:03;1456.45;;;975.20;;
37507;SDS011;23360;46.936;15.514;2022-08-19T02:01:30;1222.03;;;883.97;;
37507;SDS011;23360;46.936;15.514;2022-08-19T02:04:01;1331.65;;;947.65;;
37507;SDS011;23360;46.936;15.514;2022-08-19T02:06:27;1270.97;;;916.70;;
37507;SDS011;23360;46.936;15.514;2022-08-19T02:08:54;1280.93;;;969.42;;
37507;SDS011;23360;46.936;15.514;2022-08-19T02:11:24;1236.82;;;900.00;;
37507;SDS011;23360;46.936;15.514;2022-08-19T02:13:53;1231.32;;;930.33;;
37507;SDS011;23360;46.936;15.514;2022-08-19T02:16:20;1267.55;;;930.70;;
37507;SDS011;23360;46.936;15.514;2022-08-19T02:18:47;1282.13;;;951.15;;
37507;SDS011;23360;46.936;15.514;2022-08-19T02:21:17;1364.82;;;950.28;;
37507;SDS011;23360;46.936;15.514;2022-08-19T02:23:44;1291.72;;;930.58;;
37507;SDS011;23360;46.936;15.514;2022-08-19T02:26:11;1343.72;;;936.05;;
37507;SDS011;23360;46.936;15.514;2022-08-19T02:28:38;1256.85;;;922.85;;
37507;SDS011;23360;46.936;15.514;2022-08-19T02:31:10;1198.03;;;920.83;;
37507;SDS011;23360;46.936;15.514;2022-08-19T02:33:38;1206.32;;;865.03;;
37507;SDS011;23360;46.936;15.514;2022-08-19T02:36:05;1297.82;;;923.22;;
37507;SDS011;23360;46.936;15.514;2022-08-19T02:38:32;1210.88;;;895.70;;
37507;SDS011;23360;46.936;15.514;2022-08-19T02:41:00;1275.45;;;933.53;;
37507;SDS011;23360;46.936;15.514;2022-08-19T02:43:28;1273.30;;;914.70;;
37507;SDS011;23360;46.936;15.514;2022-08-19T02:45:59;1208.00;;;898.73;;
37507;SDS011;23360;46.936;15.514;2022-08-19T02:48:26;1167.05;;;889.80;;
37507;SDS011;23360;46.936;15.514;2022-08-19T02:50:53;1201.60;;;886.90;;
37507;SDS011;23360;46.936;15.514;2022-08-19T02:53:23;1355.57;;;958.17;;
37507;SDS011;23360;46.936;15.514;2022-08-19T02:55:57;1327.57;;;932.50;;
37507;SDS011;23360;46.936;15.514;2022-08-19T02:58:25;1317.32;;;926.55;;
37507;SDS011;23360;46.936;15.514;2022-08-19T03:00:55;1295.65;;;944.50;;
37507;SDS011;23360;46.936;15.514;2022-08-19T03:03:22;1324.65;;;960.63;;
37507;SDS011;23360;46.936;15.514;2022-08-19T03:05:49;1318.05;;;960.75;;
37507;SDS011;23360;46.936;15.514;2022-08-19T03:08:23;1260.97;;;934.50;;
37507;SDS011;23360;46.936;15.514;2022-08-19T03:10:50;1292.75;;;931.25;;
37507;SDS011;23360;46.936;15.514;2022-08-19T03:13:18;1251.60;;;905.25;;
37507;SDS011;23360;46.936;15.514;2022-08-19T03:15:45;1199.10;;;901.22;;
37507;SDS011;23360;46.936;15.514;2022-08-19T03:18:12;1298.60;;;914.85;;
37507;SDS011;23360;46.936;15.514;2022-08-19T03:20:43;1262.57;;;936.85;;
37507;SDS011;23360;46.936;15.514;2022-08-19T03:23:10;1263.78;;;921.65;;
37507;SDS011;23360;46.936;15.514;2022-08-19T03:25:40;1219.35;;;910.35;;
37507;SDS011;23360;46.936;15.514;2022-08-19T03:28:09;1307.32;;;926.22;;
37507;SDS011;23360;46.936;15.514;2022-08-19T03:30:36;1409.15;;;982.60;;
37507;SDS011;23360;46.936;15.514;2022-08-19T03:33:07;1343.38;;;950.78;;
37507;SDS011;23360;46.936;15.514;2022-08-19T03:35:34;1298.40;;;937.00;;
37507;SDS011;23360;46.936;15.514;2022-08-19T03:38:04;1203.45;;;863.58;;
37507;SDS011;23360;46.936;15.514;2022-08-19T03:40:32;1353.57;;;961.17;;
37507;SDS011;23360;46.936;15.514;2022-08-19T03:43:01;1290.95;;;901.13;;
37507;SDS011;23360;46.936;15.514;2022-08-19T03:45:27;1287.68;;;939.08;;
37507;SDS011;23360;46.936;15.514;2022-08-19T03:47:55;1285.75;;;948.92;;
37507;SDS011;23360;46.936;15.514;2022-08-19T03:50:21;1302.18;;;923.05;;
37507;SDS011;23360;46.936;15.514;2022-08-19T03:52:51;1166.35;;;880.05;;
37507;SDS011;23360;46.936;15.514;2022-08-19T03:55:18;1314.03;;;925.35;;
37507;SDS011;23360;46.936;15.514;2022-08-19T03:57:45;1161.00;;;870.75;;
37507;SDS011;23360;46.936;15.514;2022-08-19T04:00:12;1203.53;;;882.00;;
37507;SDS011;23360;46.936;15.514;2022-08-19T04:02:45;1231.80;;;872.00;;
37507;SDS011;23360;46.936;15.514;2022-08-19T04:05:26;1286.10;;;946.58;;
37507;SDS011;23360;46.936;15.514;2022-08-19T04:07:55;1152.55;;;882.38;;
37507;SDS011;23360;46.936;15.514;2022-08-19T04:10:25;1170.05;;;843.70;;
37507;SDS011;23360;46.936;15.514;2022-08-19T04:12:52;1299.05;;;952.00;;
37507;SDS011;23360;46.936;15.514;2022-08-19T04:15:19;1175.50;;;867.45;;
37507;SDS011;23360;46.936;15.514;2022-08-19T04:17:46;1225.22;;;892.97;;
37507;SDS011;23360;46.936;15.514;2022-08-19T04:20:13;1180.78;;;869.25;;
37507;SDS011;23360;46.936;15.514;2022-08-19T04:22:39;1313.47;;;893.90;;
37507;SDS011;23360;46.936;15.514;2022-08-19T04:25:06;1402.68;;;921.05;;
37507;SDS011;23360;46.936;15.514;2022-08-19T04:27:32;1386.90;;;890.50;;
37507;SDS011;23360;46.936;15.514;2022-08-19T04:29:59;1190.95;;;873.42;;
37507;SDS011;23360;46.936;15.514;2022-08-19T04:32:25;1250.15;;;908.47;;
37507;SDS011;23360;46.936;15.514;2022-08-19T04:34:52;1379.05;;;947.35;;
37507;SDS011;23360;46.936;15.514;2022-08-19T04:37:41;1588.20;;;843.88;;
37507;SDS011;23360;46.936;15.514;2022-08-19T04:40:07;1224.65;;;893.45;;
37507;SDS011;23360;46.936;15.514;2022-08-19T04:43:00;1126.80;;;806.90;;
37507;SDS011;23360;46.936;15.514;2022-08-19T04:45:27;1476.40;;;843.10;;
37507;SDS011;23360;46.936;15.514;2022-08-19T04:48:03;1344.35;;;937.88;;
37507;SDS011;23360;46.936;15.514;2022-08-19T04:50:55;1227.35;;;853.20;;
37507;SDS011;23360;46.936;15.514;2022-08-19T04:53:30;1191.75;;;838.65;;
37507;SDS011;23360;46.936;15.514;2022-08-19T04:56:08;1250.95;;;876.58;;
37507;SDS011;23360;46.936;15.514;2022-08-19T04:58:39;1216.13;;;879.42;;
37507;SDS011;23360;46.936;15.514;2022-08-19T05:01:08;1302.88;;;911.55;;
37507;SDS011;23360;46.936;15.514;2022-08-19T05:03:37;1262.32;;;930.13;;
37507;SDS011;23360;46.936;15.514;2022-08-19T05:06:10;1239.32;;;860.97;;
37507;SDS011;23360;46.936;15.514;2022-08-19T05:08:39;1254.55;;;939.60;;
37507;SDS011;23360;46.936;15.514;2022-08-19T05:11:25;1223.93;;;865.08;;
37507;SDS011;23360;46.936;15.514;2022-08-19T05:13:52;1281.35;;;877.50;;
37507;SDS011;23360;46.936;15.514;2022-08-19T05:16:19;1188.25;;;857.45;;
37507;SDS011;23360;46.936;15.514;2022-08-19T05:18:46;1205.85;;;848.80;;
37507;SDS011;23360;46.936;15.514;2022-08-19T05:21:32;1149.68;;;835.47;;
37507;SDS011;23360;46.936;15.514;2022-08-19T05:24:18;1327.18;;;912.95;;
37507;SDS011;23360;46.936;15.514;2022-08-19T05:26:47;1241.53;;;891.95;;
37507;SDS011;23360;46.936;15.514;2022-08-19T05:29:15;1361.50;;;931.03;;
37507;SDS011;23360;46.936;15.514;2022-08-19T05:31:43;1217.70;;;856.30;;
37507;SDS011;23360;46.936;15.514;2022-08-19T05:34:09;1370.00;;;917.42;;
37507;SDS011;23360;46.936;15.514;2022-08-19T05:36:45;1227.07;;;883.38;;
37507;SDS011;23360;46.936;15.514;2022-08-19T05:39:14;1308.47;;;888.80;;
37507;SDS011;23360;46.936;15.514;2022-08-19T05:41:42;1357.60;;;930.30;;
37507;SDS011;23360;46.936;15.514;2022-08-19T05:44:10;1201.22;;;847.42;;
37507;SDS011;23360;46.936;15.514;2022-08-19T05:46:37;1352.25;;;916.85;;
37507;SDS011;23360;46.936;15.514;2022-08-19T05:49:07;1242.07;;;897.67;;
37507;SDS011;23360;46.936;15.514;2022-08-19T05:51:35;1384.55;;;966.13;;
37507;SDS011;23360;46.936;15.514;2022-08-19T05:54:02;1225.75;;;843.78;;
37507;SDS011;23360;46.936;15.514;2022-08-19T05:56:28;1452.18;;;999.90;;
37507;SDS011;23360;46.936;15.514;2022-08-19T05:58:57;1375.13;;;937.65;;
37507;SDS011;23360;46.936;15.514;2022-08-19T06:01:24;1281.75;;;942.33;;
37507;SDS011;23360;46.936;15.514;2022-08-19T06:03:51;1325.63;;;919.38;;
37507;SDS011;23360;46.936;15.514;2022-08-19T06:06:20;1226.30;;;886.75;;
37507;SDS011;23360;46.936;15.514;2022-08-19T06:08:46;1357.28;;;924.20;;
37507;SDS011;23360;46.936;15.514;2022-08-19T06:11:20;1342.60;;;955.50;;
37507;SDS011;23360;46.936;15.514;2022-08-19T06:13:48;1410.65;;;986.40;;
37507;SDS011;23360;46.936;15.514;2022-08-19T06:16:25;1121.30;;;843.88;;
37507;SDS011;23360;46.936;15.514;2022-08-19T06:18:52;1230.57;;;875.08;;
37507;SDS011;23360;46.936;15.514;2022-08-19T06:21:24;1471.43;;;999.90;;
37507;SDS011;23360;46.936;15.514;2022-08-19T06:23:51;1310.55;;;923.00;;
37507;SDS011;23360;46.936;15.514;2022-08-19T06:26:19;1312.47;;;911.22;;
37507;SDS011;23360;46.936;15.514;2022-08-19T06:28:46;1211.57;;;873.92;;
37507;SDS011;23360;46.936;15.514;2022-08-19T06:31:17;1482.22;;;953.67;;
37507;SDS011;23360;46.936;15.514;2022-08-19T06:33:44;1442.80;;;982.90;;
37507;SDS011;23360;46.936;15.514;2022-08-19T06:36:18;1396.63;;;927.78;;
37507;SDS011;23360;46.936;15.514;2022-08-19T06:38:44;1211.65;;;850.60;;
37507;SDS011;23360;46.936;15.514;2022-08-19T06:41:11;1286.45;;;873.15;;
37507;SDS011;23360;46.936;15.514;2022-08-19T06:43:39;1430.63;;;978.17;;
37507;SDS011;23360;46.936;15.514;2022-08-19T06:46:09;1257.22;;;849.58;;
37507;SDS011;23360;46.936;15.514;2022-08-19T06:48:39;1417.40;;;968.88;;
37507;SDS011;23360;46.936;15.514;2022-08-19T06:51:11;1348.10;;;944.30;;
37507;SDS011;23360;46.936;15.514;2022-08-19T06:53:38;1245.70;;;869.47;;
37507;SDS011;23360;46.936;15.514;2022-08-19T06:56:05;1429.22;;;957.03;;
37507;SDS011;23360;46.936;15.514;2022-08-19T06:58:32;1262.20;;;889.63;;
37507;SDS011;23360;46.936;15.514;2022-08-19T07:00:59;1386.15;;;925.97;;
37507;SDS011;23360;46.936;15.514;2022-08-19T07:03:32;1297.28;;;892.22;;
37507;SDS011;23360;46.936;15.514;2022-08-19T07:06:03;1365.07;;;935.88;;
37507;SDS011;23360;46.936;15.514;2022-08-19T07:08:36;1173.30;;;837.03;;
37507;SDS011;23360;46.936;15.514;2022-08-19T07:11:08;1285.28;;;902.70;;
37507;SDS011;23360;46.936;15.514;2022-08-19T07:13:36;1374.35;;;957.22;;
37507;SDS011;23360;46.936;15.514;2022-08-19T07:16:04;1402.40;;;947.22;;
37507;SDS011;23360;46.936;15.514;2022-08-19T07:18:32;1293.10;;;895.08;;
37507;SDS011;23360;46.936;15.514;2022-08-19T07:21:07;1421.68;;;964.58;;
37507;SDS011;23360;46.936;15.514;2022-08-19T07:23:38;1290.20;;;879.88;;
37507;SDS011;23360;46.936;15.514;2022-08-19T07:26:06;1262.43;;;896.13;;
37507;SDS011;23360;46.936;15.514;2022-08-19T07:28:34;1313.07;;;882.55;;
37507;SDS011;23360;46.936;15.514;2022-08-19T07:31:17;1367.57;;;914.13;;
37507;SDS011;23360;46.936;15.514;2022-08-19T07:33:50;1418.15;;;945.47;;
37507;SDS011;23360;46.936;15.514;2022-08-19T07:36:20;1409.43;;;912.92;;
37507;SDS011;23360;46.936;15.514;2022-08-19T07:38:50;1320.63;;;897.33;;
37507;SDS011;23360;46.936;15.514;2022-08-19T07:41:19;1338.53;;;900.80;;
37507;SDS011;23360;46.936;15.514;2022-08-19T07:43:48;1463.95;;;983.65;;
37507;SDS011;23360;46.936;15.514;2022-08-19T07:46:15;1411.40;;;955.08;;
37507;SDS011;23360;46.936;15.514;2022-08-19T07:48:49;1251.50;;;880.42;;
37507;SDS011;23360;46.936;15.514;2022-08-19T07:51:17;1363.63;;;898.05;;
37507;SDS011;23360;46.936;15.514;2022-08-19T07:54:02;1321.13;;;909.40;;
37507;SDS011;23360;46.936;15.514;2022-08-19T07:56:29;1481.97;;;957.25;;
37507;SDS011;23360;46.936;15.514;2022-08-19T07:58:55;1431.03;;;963.88;;
37507;SDS011;23360;46.936;15.514;2022-08-19T08:01:27;1452.20;;;975.22;;
37507;SDS011;23360;46.936;15.514;2022-08-19T08:03:55;1389.63;;;921.78;;
37507;SDS011;23360;46.936;15.514;2022-08-19T08:06:42;1344.15;;;901.97;;
37507;SDS011;23360;46.936;15.514;2022-08-19T08:09:29;1394.40;;;918.80;;
37507;SDS011;23360;46.936;15.514;2022-08-19T08:12:09;1304.55;;;872.03;;
37507;SDS011;23360;46.936;15.514;2022-08-19T08:14:57;1352.03;;;938.92;;
37507;SDS011;23360;46.936;15.514;2022-08-19T08:17:25;1415.40;;;965.05;;
37507;SDS011;23360;46.936;15.514;2022-08-19T08:20:12;1279.57;;;877.20;;
37507;SDS011;23360;46.936;15.514;2022-08-19T08:22:42;1469.55;;;995.88;;
37507;SDS011;23360;46.936;15.514;2022-08-19T08:25:28;1500.50;;;982.80;;
37507;SDS011;23360;46.936;15.514;2022-08-19T08:28:04;1396.40;;;962.13;;
37507;SDS011;23360;46.936;15.514;2022-08-19T08:30:31;1405.35;;;954.28;;
37507;SDS011;23360;46.936;15.514;2022-08-19T08:32:59;1443.20;;;977.60;;
37507;SDS011;23360;46.936;15.514;2022-08-19T08:35:27;1456.28;;;958.85;;
37507;SDS011;23360;46.936;15.514;2022-08-19T08:37:55;1448.93;;;972.65;;
37507;SDS011;23360;46.936;15.514;2022-08-19T08:45:47;1369.72;;;942.60;;
37507;SDS011;23360;46.936;15.514;2022-08-19T08:51:03;1383.10;;;951.88;;
37507;SDS011;23360;46.936;15.514;2022-08-19T08:53:34;1418.40;;;928.35;;
37507;SDS011;23360;46.936;15.514;2022-08-19T08:56:10;1435.15;;;951.60;;
37507;SDS011;23360;46.936;15.514;2022-08-19T08:58:54;1311.90;;;864.20;;
37507;SDS011;23360;46.936;15.514;2022-08-19T09:01:22;1331.28;;;878.35;;
37507;SDS011;23360;46.936;15.514;2022-08-19T09:03:56;1490.85;;;994.95;;
37507;SDS011;23360;46.936;15.514;2022-08-19T09:09:20;1425.00;;;976.55;;
37507;SDS011;23360;46.936;15.514;2022-08-19T09:17:18;1367.05;;;926.33;;
37507;SDS011;23360;46.936;15.514;2022-08-19T09:19:53;1455.35;;;973.70;;
37507;SDS011;23360;46.936;15.514;2022-08-19T09:22:20;1423.93;;;992.38;;
37507;SDS011;23360;46.936;15.514;2022-08-19T09:24:52;1435.72;;;954.78;;
37507;SDS011;23360;46.936;15.514;2022-08-19T09:27:19;1342.50;;;909.60;;
37507;SDS011;23360;46.936;15.514;2022-08-19T09:30:07;1329.68;;;926.38;;
37507;SDS011;23360;46.936;15.514;2022-08-19T09:32:35;1421.75;;;981.55;;
37507;SDS011;23360;46.936;15.514;2022-08-19T09:35:01;1375.63;;;952.38;;
37507;SDS011;23360;46.936;15.514;2022-08-19T09:37:34;1383.97;;;908.85;;
37507;SDS011;23360;46.936;15.514;2022-08-19T09:40:01;1373.82;;;896.83;;
37507;SDS011;23360;46.936;15.514;2022-08-19T09:42:30;1348.45;;;963.00;;
37507;SDS011;23360;46.936;15.514;2022-08-19T09:45:00;1361.47;;;877.72;;
37507;SDS011;23360;46.936;15.514;2022-08-19T09:47:30;1419.32;;;943.03;;
37507;SDS011;23360;46.936;15.514;2022-08-19T09:49:56;1282.30;;;868.55;;
37507;SDS011;23360;46.936;15.514;2022-08-19T09:52:24;1397.45;;;924.42;;
37507;SDS011;23360;46.936;15.514;2022-08-19T09:54:58;1612.55;;;999.90;;
37507;SDS011;23360;46.936;15.514;2022-08-19T09:57:24;1504.15;;;980.72;;
37507;SDS011;23360;46.936;15.514;2022-08-19T09:59:51;1373.13;;;941.22;;
37507;SDS011;23360;46.936;15.514;2022-08-19T10:02:18;1452.07;;;941.05;;
37507;SDS011;23360;46.936;15.514;2022-08-19T10:04:54;1569.35;;;996.30;;
37507;SDS011;23360;46.936;15.514;2022-08-19T10:07:52;1488.85;;;961.83;;
37507;SDS011;23360;46.936;15.514;2022-08-19T10:10:22;1532.70;;;971.55;;
37507;SDS011;23360;46.936;15.514;2022-08-19T10:12:51;1427.35;;;958.05;;
37507;SDS011;23360;46.936;15.514;2022-08-19T10:15:18;1488.90;;;973.75;;
37507;SDS011;23360;46.936;15.514;2022-08-19T10:17:54;1538.07;;;999.50;;
37507;SDS011;23360;46.936;15.514;2022-08-19T10:20:26;1529.57;;;994.95;;
37507;SDS011;23360;46.936;15.514;2022-08-19T10:22:52;1522.43;;;988.00;;
37507;SDS011;23360;46.936;15.514;2022-08-19T10:25:18;1468.63;;;956.38;;
37507;SDS011;23360;46.936;15.514;2022-08-19T10:27:45;1498.38;;;970.28;;
37507;SDS011;23360;46.936;15.514;2022-08-19T10:30:16;1623.55;;;999.90;;
37507;SDS011;23360;46.936;15.514;2022-08-19T10:32:45;1521.80;;;983.28;;
37507;SDS011;23360;46.936;15.514;2022-08-19T10:35:12;1417.18;;;934.35;;
37507;SDS011;23360;46.936;15.514;2022-08-19T10:37:46;1536.35;;;969.72;;
37507;SDS011;23360;46.936;15.514;2022-08-19T10:40:23;1346.30;;;933.10;;
37507;SDS011;23360;46.936;15.514;2022-08-19T10:42:49;1411.50;;;944.90;;
37507;SDS011;23360;46.936;15.514;2022-08-19T10:45:21;1565.32;;;972.05;;
37507;SDS011;23360;46.936;15.514;2022-08-19T10:47:53;1570.13;;;993.10;;
37507;SDS011;23360;46.936;15.514;2022-08-19T10:50:21;1495.18;;;992.97;;
37507;SDS011;23360;46.936;15.514;2022-08-19T10:53:07;1532.40;;;979.75;;
37507;SDS011;23360;46.936;15.514;2022-08-19T10:55:38;1420.18;;;924.97;;
37507;SDS011;23360;46.936;15.514;2022-08-19T10:58:23;1455.32;;;943.58;;
37507;SDS011;23360;46.936;15.514;2022-08-19T11:00:52;1444.93;;;942.25;;
37507;SDS011;23360;46.936;15.514;2022-08-19T11:03:19;1441.38;;;965.95;;
37507;SDS011;23360;46.936;15.514;2022-08-19T11:05:46;1453.82;;;987.95;;
37507;SDS011;23360;46.936;15.514;2022-08-19T11:08:15;1498.43;;;937.58;;
37507;SDS011;23360;46.936;15.514;2022-08-19T11:10:49;1399.45;;;929.10;;
37507;SDS011;23360;46.936;15.514;2022-08-19T11:13:16;1378.45;;;947.92;;
37507;SDS011;23360;46.936;15.514;2022-08-19T11:15:42;1355.63;;;895.08;;
37507;SDS011;23360;46.936;15.514;2022-08-19T11:18:09;1580.30;;;991.97;;
37507;SDS011;23360;46.936;15.514;2022-08-19T11:20:44;1504.00;;;960.92;;
37507;SDS011;23360;46.936;15.514;2022-08-19T11:23:12;1484.38;;;938.55;;
37507;SDS011;23360;46.936;15.514;2022-08-19T11:25:39;1471.88;;;946.55;;
37507;SDS011;23360;46.936;15.514;2022-08-19T11:28:05;1479.70;;;967.85;;
37507;SDS011;23360;46.936;15.514;2022-08-19T11:30:31;1455.70;;;940.08;;
37507;SDS011;23360;46.936;15.514;2022-08-19T11:32:59;1439.15;;;913.97;;
37507;SDS011;23360;46.936;15.514;2022-08-19T11:35:27;1390.82;;;913.05;;
37507;SDS011;23360;46.936;15.514;2022-08-19T11:37:54;1244.95;;;849.28;;
37507;SDS011;23360;46.936;15.514;2022-08-19T11:40:22;1440.22;;;904.85;;
37507;SDS011;23360;46.936;15.514;2022-08-19T11:42:48;1255.90;;;869.45;;
37507;SDS011;23360;46.936;15.514;2022-08-19T11:45:22;1551.68;;;978.83;;
37507;SDS011;23360;46.936;15.514;2022-08-19T11:47:49;1517.18;;;990.05;;
37507;SDS011;23360;46.936;15.514;2022-08-19T11:50:18;1407.72;;;881.65;;
37507;SDS011;23360;46.936;15.514;2022-08-19T11:52:45;1593.53;;;982.53;;
37507;SDS011;23360;46.936;15.514;2022-08-19T11:55:12;1559.22;;;969.95;;
37507;SDS011;23360;46.936;15.514;2022-08-19T11:57:39;1434.60;;;896.55;;
37507;SDS011;23360;46.936;15.514;2022-08-19T12:00:07;1398.82;;;926.65;;
37507;SDS011;23360;46.936;15.514;2022-08-19T12:02:35;1394.65;;;888.42;;
37507;SDS011;23360;46.936;15.514;2022-08-19T12:05:02;1526.35;;;958.50;;
37507;SDS011;23360;46.936;15.514;2022-08-19T12:07:34;1568.28;;;961.00;;
37507;SDS011;23360;46.936;15.514;2022-08-19T12:10:01;1405.85;;;933.85;;
37507;SDS011;23360;46.936;15.514;2022-08-19T12:12:28;1425.72;;;923.38;;
37507;SDS011;23360;46.936;15.514;2022-08-19T12:14:55;1362.22;;;920.67;;
37507;SDS011;23360;46.936;15.514;2022-08-19T12:17:28;1342.07;;;908.05;;
37507;SDS011;23360;46.936;15.514;2022-08-19T12:19:54;1338.13;;;884.22;;
37507;SDS011;23360;46.936;15.514;2022-08-19T12:22:21;1371.53;;;875.25;;
37507;SDS011;23360;46.936;15.514;2022-08-19T12:24:49;1611.05;;;996.55;;
37507;SDS011;23360;46.936;15.514;2022-08-19T12:27:18;1488.10;;;957.47;;
37507;SDS011;23360;46.936;15.514;2022-08-19T12:30:05;1393.45;;;912.15;;
37507;SDS011;23360;46.936;15.514;2022-08-19T12:32:33;1469.85;;;911.88;;
37507;SDS011;23360;46.936;15.514;2022-08-19T12:35:00;1409.03;;;870.03;;
37507;SDS011;23360;46.936;15.514;2022-08-19T12:37:27;1533.97;;;927.20;;
37507;SDS011;23360;46.936;15.514;2022-08-19T12:39:54;1529.45;;;947.15;;
37507;SDS011;23360;46.936;15.514;2022-08-19T12:42:20;1451.38;;;905.70;;
37507;SDS011;23360;46.936;15.514;2022-08-19T12:44:48;1443.88;;;893.03;;
37507;SDS011;23360;46.936;15.514;2022-08-19T12:47:14;1389.82;;;887.90;;
37507;SDS011;23360;46.936;15.514;2022-08-19T12:49:41;1549.68;;;935.72;;
37507;SDS011;23360;46.936;15.514;2022-08-19T12:52:24;1352.20;;;838.72;;
37507;SDS011;23360;46.936;15.514;2022-08-19T12:54:52;1462.28;;;910.50;;
37507;SDS011;23360;46.936;15.514;2022-08-19T12:57:22;1468.20;;;876.90;;
37507;SDS011;23360;46.936;15.514;2022-08-19T12:59:58;1327.88;;;819.75;;
37507;SDS011;23360;46.936;15.514;2022-08-19T13:02:25;1305.25;;;806.72;;
37507;SDS011;23360;46.936;15.514;2022-08-19T13:04:52;1247.70;;;801.47;;
37507;SDS011;23360;46.936;15.514;2022-08-19T13:07:19;1331.70;;;813.78;;
37507;SDS011;23360;46.936;15.514;2022-08-19T13:09:49;1345.55;;;818.20;;
37507;SDS011;23360;46.936;15.514;2022-08-19T13:12:17;1196.47;;;797.03;;
37507;SDS011;23360;46.936;15.514;2022-08-19T13:14:52;1352.57;;;814.05;;
37507;SDS011;23360;46.936;15.514;2022-08-19T13:17:19;1245.47;;;773.35;;
37507;SDS011;23360;46.936;15.514;2022-08-19T13:19:45;1330.97;;;797.95;;
37507;SDS011;23360;46.936;15.514;2022-08-19T13:22:12;1112.85;;;745.60;;
37507;SDS011;23360;46.936;15.514;2022-08-19T13:24:40;1049.55;;;741.08;;
37507;SDS011;23360;46.936;15.514;2022-08-19T13:27:12;1218.13;;;762.35;;
37507;SDS011;23360;46.936;15.514;2022-08-19T13:29:39;1093.60;;;726.47;;
37507;SDS011;23360;46.936;15.514;2022-08-19T13:32:24;1299.93;;;829.80;;
37507;SDS011;23360;46.936;15.514;2022-08-19T13:35:10;1283.43;;;826.03;;
37507;SDS011;23360;46.936;15.514;2022-08-19T13:40:14;1321.68;;;810.25;;
37507;SDS011;23360;46.936;15.514;2022-08-19T13:42:44;1126.45;;;709.42;;
37507;SDS011;23360;46.936;15.514;2022-08-19T13:45:13;1244.20;;;801.95;;
37507;SDS011;23360;46.936;15.514;2022-08-19T13:47:41;1134.72;;;754.13;;
37507;SDS011;23360;46.936;15.514;2022-08-19T13:50:19;1235.55;;;789.53;;
37507;SDS011;23360;46.936;15.514;2022-08-19T13:52:48;1110.10;;;728.15;;
37507;SDS011;23360;46.936;15.514;2022-08-19T13:55:15;1267.63;;;816.45;;
37507;SDS011;23360;46.936;15.514;2022-08-19T13:57:54;1285.55;;;812.55;;
37507;SDS011;23360;46.936;15.514;2022-08-19T14:00:22;1206.22;;;769.15;;
37507;SDS011;23360;46.936;15.514;2022-08-19T14:02:51;1224.18;;;793.53;;
37507;SDS011;23360;46.936;15.514;2022-08-19T14:05:18;1394.55;;;837.38;;
37507;SDS011;23360;46.936;15.514;2022-08-19T14:07:46;1318.85;;;831.88;;
37507;SDS011;23360;46.936;15.514;2022-08-19T14:10:13;1167.75;;;729.97;;
37507;SDS011;23360;46.936;15.514;2022-08-19T14:12:41;1274.15;;;808.05;;